Time;durP1;ratioP1;P1;durP2;ratioP2;P2;SDS_P1;SDS_P2;PMS_P1;PMS_P2;Temp;Humidity;BMP_temperature;BMP_pressure;BME280_temperature;BME280_humidity;BME280_pressure;Samples;Min_cycle;Max_cycle;Signal;HPM_P1;HPM_P2
2023/11/13 00:00:18;;;;;;;5.97;3.53;;;7.30;99.90;;;;;;4986736;28;20230;-92
2023/11/13 00:02:44;;;;;;;5.43;2.70;;;7.40;99.90;;;;;;5020497;28;20230;-92
2023/11/13 00:05:11;;;;;;;3.87;3.13;;;7.40;99.90;;;;;;5018589;28;20215;-92
2023/11/13 00:07:36;;;;;;;6.53;3.77;;;7.40;99.90;;;;;;5036826;28;20217;-93
2023/11/13 00:10:03;;;;;;;7.17;4.87;;;7.40;99.90;;;;;;5038119;28;20202;-93
2023/11/13 00:12:29;;;;;;;5.73;3.77;;;7.30;99.90;;;;;;5036621;28;20318;-93
2023/11/13 00:14:55;;;;;;;17.47;3.00;;;7.40;99.90;;;;;;5037245;28;20268;-93
2023/11/13 00:17:21;;;;;;;3.73;2.93;;;7.40;99.90;;;;;;5001368;28;20301;-92
2023/11/13 00:19:47;;;;;;;2.60;2.40;;;7.40;99.90;;;;;;5001326;28;21044;-91
2023/11/13 00:22:13;;;;;;;3.40;3.10;;;7.40;99.90;;;;;;5038593;28;20205;-93
2023/11/13 00:24:39;;;;;;;6.17;2.83;;;7.40;99.90;;;;;;5003454;28;20198;-92
2023/11/13 00:27:05;;;;;;;11.40;3.67;;;7.40;99.90;;;;;;5001635;28;20220;-93
2023/11/13 00:29:31;;;;;;;3.37;2.63;;;7.40;99.90;;;;;;5035666;28;20245;-92
2023/11/13 00:31:56;;;;;;;4.83;4.47;;;7.40;99.90;;;;;;5019734;28;20222;-93
2023/11/13 00:34:22;;;;;;;5.20;4.37;;;7.30;99.90;;;;;;5035564;28;20635;-94
2023/11/13 00:36:51;;;;;;;4.77;3.67;;;7.30;99.90;;;;;;5004429;28;20189;-92
2023/11/13 00:39:18;;;;;;;5.80;4.47;;;7.40;99.90;;;;;;5038165;28;20224;-93
2023/11/13 00:41:44;;;;;;;10.20;6.17;;;7.40;99.90;;;;;;5016257;28;20360;-93
2023/11/13 00:44:10;;;;;;;7.30;3.30;;;7.40;99.90;;;;;;5035470;28;20305;-92
2023/11/13 00:46:36;;;;;;;6.03;3.80;;;7.40;99.90;;;;;;5035704;28;20564;-92
2023/11/13 00:49:01;;;;;;;7.40;3.43;;;7.30;99.90;;;;;;5037329;28;20187;-93
2023/11/13 00:51:27;;;;;;;4.33;3.90;;;7.30;99.90;;;;;;5019279;28;20218;-93
2023/11/13 00:53:53;;;;;;;2.63;2.43;;;7.20;99.90;;;;;;5004949;28;20217;-93
2023/11/13 00:56:18;;;;;;;4.87;3.27;;;7.30;99.90;;;;;;5020153;28;20214;-92
2023/11/13 00:58:45;;;;;;;3.20;2.80;;;7.20;99.90;;;;;;5033675;28;20211;-93
2023/11/13 01:01:14;;;;;;;7.47;4.27;;;7.20;99.90;;;;;;5039084;28;20212;-93
2023/11/13 01:03:42;;;;;;;4.47;3.97;;;7.30;99.90;;;;;;5037820;28;20685;-93
2023/11/13 01:06:08;;;;;;;10.43;5.73;;;7.30;99.90;;;;;;5036976;28;20729;-94
2023/11/13 01:08:34;;;;;;;13.07;3.83;;;7.20;99.90;;;;;;5020092;28;20214;-93
2023/11/13 01:11:00;;;;;;;9.10;4.27;;;7.30;99.90;;;;;;5019102;28;20223;-94
2023/11/13 01:13:26;;;;;;;8.73;4.67;;;7.30;99.90;;;;;;5017991;28;20194;-92
2023/11/13 01:15:52;;;;;;;8.37;3.40;;;7.30;99.90;;;;;;5038288;28;20186;-93
2023/11/13 01:18:18;;;;;;;4.63;3.57;;;7.30;99.90;;;;;;5022001;28;20276;-93
2023/11/13 01:20:45;;;;;;;8.93;5.33;;;7.30;99.90;;;;;;5035715;28;20245;-92
2023/11/13 01:23:11;;;;;;;8.57;5.37;;;7.30;99.90;;;;;;5036676;28;20248;-93
2023/11/13 01:25:37;;;;;;;6.07;4.23;;;7.20;99.90;;;;;;5034671;28;20225;-92
2023/11/13 01:28:03;;;;;;;4.83;4.33;;;7.10;99.90;;;;;;5034311;28;20197;-93
2023/11/13 01:30:28;;;;;;;6.20;3.43;;;7.00;99.90;;;;;;5019364;28;20593;-94
2023/11/13 01:32:54;;;;;;;5.73;4.87;;;7.00;99.90;;;;;;5017847;28;20226;-92
2023/11/13 01:35:20;;;;;;;3.40;3.10;;;7.00;99.90;;;;;;5015641;28;20235;-92
2023/11/13 01:37:46;;;;;;;4.90;3.37;;;7.00;99.90;;;;;;5036645;28;20272;-92
2023/11/13 01:40:12;;;;;;;5.10;4.63;;;7.10;99.90;;;;;;5016993;28;20211;-93
2023/11/13 01:42:39;;;;;;;8.00;4.10;;;7.00;99.90;;;;;;5034962;28;20238;-94
2023/11/13 01:45:06;;;;;;;9.47;4.13;;;7.00;99.90;;;;;;5019001;28;20283;-93
2023/11/13 01:47:32;;;;;;;2.53;2.33;;;7.00;99.90;;;;;;5019640;28;20232;-91
2023/11/13 01:49:58;;;;;;;3.27;2.97;;;6.90;99.90;;;;;;5018291;28;20218;-93
2023/11/13 01:52:26;;;;;;;14.63;4.20;;;7.00;99.90;;;;;;5035417;28;20190;-91
2023/11/13 01:54:52;;;;;;;4.43;2.40;;;7.00;99.90;;;;;;5010845;28;20189;-92
2023/11/13 01:57:18;;;;;;;2.70;2.50;;;7.00;99.90;;;;;;5019668;28;20218;-93
2023/11/13 01:59:44;;;;;;;3.17;2.53;;;6.90;99.90;;;;;;5018487;28;20221;-92
2023/11/13 02:02:10;;;;;;;10.33;4.27;;;6.90;99.90;;;;;;4986734;28;20305;-93
2023/11/13 02:04:36;;;;;;;9.40;5.17;;;6.90;99.90;;;;;;5042530;28;20620;-93
2023/11/13 02:07:04;;;;;;;5.60;4.23;;;6.80;99.90;;;;;;5016362;28;20581;-92
2023/11/13 02:09:30;;;;;;;5.63;3.33;;;6.80;99.90;;;;;;5033119;28;20225;-92
2023/11/13 02:11:57;;;;;;;3.93;3.50;;;6.70;99.90;;;;;;5035086;28;20214;-93
2023/11/13 02:14:24;;;;;;;3.00;2.77;;;6.70;99.90;;;;;;5035205;28;20238;-93
2023/11/13 02:16:49;;;;;;;7.60;2.93;;;6.60;99.90;;;;;;5011887;28;20218;-93
2023/11/13 02:19:18;;;;;;;3.03;2.83;;;6.70;99.90;;;;;;5013019;28;20700;-92
2023/11/13 02:21:44;;;;;;;3.70;3.40;;;6.60;99.90;;;;;;5012657;28;20230;-92
2023/11/13 02:24:12;;;;;;;10.37;3.23;;;6.60;99.90;;;;;;5030941;28;20642;-93
2023/11/13 02:26:38;;;;;;;3.97;1.87;;;6.70;99.90;;;;;;5013426;28;20216;-93
2023/11/13 02:29:03;;;;;;;8.70;4.30;;;6.60;99.90;;;;;;5012455;28;20226;-93
2023/11/13 02:31:29;;;;;;;12.87;3.00;;;6.60;99.90;;;;;;5012949;28;20190;-92
2023/11/13 02:33:55;;;;;;;5.60;4.50;;;6.60;99.90;;;;;;4997232;28;20621;-93
2023/11/13 02:36:21;;;;;;;4.33;3.87;;;6.70;99.90;;;;;;4997334;28;20685;-92
2023/11/13 02:38:47;;;;;;;3.00;2.80;;;6.60;99.90;;;;;;5030418;28;20224;-93
2023/11/13 02:41:13;;;;;;;6.77;4.27;;;6.60;99.90;;;;;;5035239;28;20803;-93
2023/11/13 02:43:39;;;;;;;3.53;2.53;;;6.50;99.90;;;;;;5012023;28;20228;-93
2023/11/13 02:46:05;;;;;;;2.90;2.70;;;6.50;99.90;;;;;;4997349;28;20191;-93
2023/11/13 02:48:32;;;;;;;2.70;2.47;;;6.50;99.90;;;;;;5031694;28;20260;-92
2023/11/13 02:50:58;;;;;;;0.97;0.90;;;6.50;99.90;;;;;;5029822;28;20800;-92
2023/11/13 02:53:24;;;;;;;1.23;1.23;;;6.50;99.90;;;;;;5028952;28;20221;-94
2023/11/13 02:55:51;;;;;;;2.20;1.83;;;6.60;99.90;;;;;;5029881;28;20218;-93
2023/11/13 02:58:17;;;;;;;2.77;2.13;;;6.50;99.90;;;;;;5013401;28;20194;-92
2023/11/13 03:00:43;;;;;;;1.97;1.87;;;6.60;99.90;;;;;;5031787;28;20738;-93
2023/11/13 03:03:10;;;;;;;3.87;3.57;;;6.50;99.90;;;;;;5029580;28;20231;-93
2023/11/13 03:05:35;;;;;;;4.00;2.33;;;6.50;99.90;;;;;;5029123;28;20210;-92
2023/11/13 03:08:01;;;;;;;2.47;1.87;;;6.60;99.90;;;;;;5013798;28;20220;-93
2023/11/13 03:10:27;;;;;;;2.90;2.00;;;6.70;99.90;;;;;;5012140;28;20199;-92
2023/11/13 03:12:53;;;;;;;2.87;1.90;;;6.60;99.90;;;;;;5014815;28;20240;-94
2023/11/13 03:15:19;;;;;;;5.43;4.93;;;6.60;99.90;;;;;;5016619;28;20267;-93
2023/11/13 03:17:45;;;;;;;2.97;2.67;;;6.60;99.90;;;;;;5015253;28;20237;-94
2023/11/13 03:20:12;;;;;;;4.47;3.57;;;6.50;99.90;;;;;;5012719;28;20281;-93
2023/11/13 03:22:38;;;;;;;2.43;2.33;;;6.60;99.90;;;;;;4998845;28;20686;-93
2023/11/13 03:25:04;;;;;;;3.33;2.63;;;6.60;99.90;;;;;;5001776;28;20285;-93
2023/11/13 03:27:30;;;;;;;3.43;1.50;;;6.60;99.90;;;;;;5032590;28;20325;-93
2023/11/13 03:29:58;;;;;;;2.67;2.47;;;6.70;99.90;;;;;;5030871;28;20214;-93
2023/11/13 03:32:25;;;;;;;5.40;3.10;;;6.60;99.90;;;;;;5017383;28;20229;-93
2023/11/13 03:34:50;;;;;;;2.60;2.50;;;6.60;99.90;;;;;;5015720;28;20309;-93
2023/11/13 03:37:16;;;;;;;3.27;2.70;;;6.70;99.90;;;;;;5031807;28;20192;-93
2023/11/13 03:39:42;;;;;;;7.23;2.77;;;6.70;99.90;;;;;;5000585;28;21028;-93
2023/11/13 03:42:09;;;;;;;3.23;2.80;;;6.70;99.90;;;;;;5018372;28;20226;-93
2023/11/13 03:44:35;;;;;;;3.20;2.43;;;6.70;99.90;;;;;;5032850;28;20313;-93
2023/11/13 03:47:00;;;;;;;2.03;1.93;;;6.70;99.90;;;;;;5031248;28;20222;-93
2023/11/13 03:49:26;;;;;;;3.40;3.10;;;6.80;99.90;;;;;;5033399;28;20197;-94
2023/11/13 03:51:53;;;;;;;5.97;2.30;;;6.70;99.90;;;;;;5017181;28;20187;-94
2023/11/13 03:54:18;;;;;;;3.90;2.33;;;6.80;99.90;;;;;;5018470;28;20312;-94
2023/11/13 03:56:44;;;;;;;1.60;1.10;;;6.70;99.90;;;;;;5032410;28;20923;-92
2023/11/13 03:59:10;;;;;;;2.47;2.27;;;6.80;99.90;;;;;;4999931;28;20907;-93
2023/11/13 04:01:36;;;;;;;2.37;2.20;;;6.70;99.90;;;;;;5031166;28;20597;-92
2023/11/13 04:04:02;;;;;;;3.50;1.57;;;6.60;99.90;;;;;;5021510;28;20729;-93
2023/11/13 04:06:28;;;;;;;2.53;2.03;;;6.70;99.90;;;;;;5005000;28;20236;-93
2023/11/13 04:08:54;;;;;;;1.70;1.30;;;6.60;99.90;;;;;;5036658;28;20632;-93
2023/11/13 04:11:19;;;;;;;12.30;3.13;;;6.70;99.90;;;;;;5018154;28;20237;-93
2023/11/13 04:13:45;;;;;;;1.37;1.27;;;6.70;99.90;;;;;;5014534;28;20228;-92
2023/11/13 04:16:11;;;;;;;2.03;1.63;;;6.70;99.90;;;;;;5017532;28;20668;-93
2023/11/13 04:18:37;;;;;;;2.37;2.23;;;6.60;99.90;;;;;;5038784;28;20229;-92
2023/11/13 04:21:04;;;;;;;4.00;2.47;;;6.50;99.90;;;;;;5035690;28;20360;-93
2023/11/13 04:23:29;;;;;;;1.70;1.53;;;6.50;99.90;;;;;;5021751;28;20332;-92
2023/11/13 04:25:56;;;;;;;1.67;1.63;;;6.60;99.90;;;;;;5035830;28;20734;-93
2023/11/13 04:28:22;;;;;;;3.30;2.40;;;6.60;99.90;;;;;;5034231;28;20194;-92
2023/11/13 04:30:48;;;;;;;2.30;2.13;;;6.50;99.90;;;;;;5034311;28;20190;-92
2023/11/13 04:33:14;;;;;;;2.37;2.13;;;6.50;99.90;;;;;;5033372;28;20725;-92
2023/11/13 04:35:40;;;;;;;3.43;2.10;;;6.50;99.90;;;;;;5020737;28;20222;-92
2023/11/13 04:38:06;;;;;;;2.37;2.20;;;6.40;99.90;;;;;;5034374;28;20328;-93
2023/11/13 04:40:32;;;;;;;4.67;3.20;;;6.30;99.90;;;;;;5036739;28;20221;-92
2023/11/13 04:43:01;;;;;;;2.57;2.40;;;6.40;99.90;;;;;;5016293;28;20677;-93
2023/11/13 04:45:27;;;;;;;2.57;2.43;;;6.40;99.90;;;;;;5003846;28;20367;-92
2023/11/13 04:47:54;;;;;;;2.90;2.67;;;6.30;99.90;;;;;;5019244;28;20309;-93
2023/11/13 04:50:19;;;;;;;6.50;3.53;;;6.20;99.90;;;;;;5018501;28;20222;-92
2023/11/13 04:52:46;;;;;;;1.87;1.80;;;6.20;99.90;;;;;;5017951;28;20279;-94
2023/11/13 04:55:12;;;;;;;6.13;2.57;;;6.10;99.90;;;;;;5018205;28;20190;-94
2023/11/13 04:57:39;;;;;;;3.33;2.60;;;6.10;99.90;;;;;;5020168;28;20265;-93
2023/11/13 05:00:06;;;;;;;5.40;3.03;;;6.10;99.90;;;;;;5033104;28;20222;-94
2023/11/13 05:02:36;;;;;;;4.03;3.13;;;6.00;99.90;;;;;;5035173;28;20257;-92
2023/11/13 05:05:07;;;;;;;3.37;2.50;;;6.00;99.90;;;;;;5019128;28;20209;-93
2023/11/13 05:07:33;;;;;;;2.47;2.30;;;6.00;99.90;;;;;;5035094;28;20610;-93
2023/11/13 05:10:00;;;;;;;2.80;1.80;;;6.00;99.90;;;;;;5020556;28;20663;-92
2023/11/13 05:12:25;;;;;;;7.73;3.50;;;6.00;99.90;;;;;;5033649;28;20682;-93
2023/11/13 05:14:52;;;;;;;6.57;2.93;;;5.90;99.90;;;;;;5018460;28;20219;-94
2023/11/13 05:17:17;;;;;;;6.17;3.20;;;5.90;99.90;;;;;;5035173;28;20210;-93
2023/11/13 05:19:43;;;;;;;3.47;3.07;;;5.90;99.90;;;;;;5019964;28;20271;-93
2023/11/13 05:22:09;;;;;;;2.43;2.03;;;5.90;99.90;;;;;;5017635;28;20353;-93
2023/11/13 05:24:34;;;;;;;3.23;3.03;;;5.80;99.90;;;;;;5019685;28;21040;-94
2023/11/13 05:27:00;;;;;;;4.23;3.07;;;5.90;99.90;;;;;;5037393;28;20232;-93
2023/11/13 05:29:26;;;;;;;2.40;2.30;;;5.90;99.90;;;;;;5018995;28;20232;-93
2023/11/13 05:31:53;;;;;;;1.73;1.73;;;5.80;99.90;;;;;;5017420;28;20237;-93
2023/11/13 05:34:19;;;;;;;3.40;3.00;;;5.80;99.90;;;;;;5020652;28;20202;-93
2023/11/13 05:36:46;;;;;;;3.07;2.70;;;5.80;99.90;;;;;;5019445;28;20265;-93
2023/11/13 05:39:12;;;;;;;4.03;2.97;;;5.80;99.90;;;;;;5019476;28;20222;-93
2023/11/13 05:41:37;;;;;;;2.80;2.60;;;5.80;99.90;;;;;;5018565;28;20234;-93
2023/11/13 05:44:03;;;;;;;2.93;2.80;;;5.80;99.90;;;;;;5017049;28;20222;-93
2023/11/13 05:46:30;;;;;;;3.63;3.30;;;5.80;99.90;;;;;;5033998;28;20206;-94
2023/11/13 05:48:56;;;;;;;3.00;2.80;;;5.70;99.90;;;;;;5036208;28;20190;-93
2023/11/13 05:51:21;;;;;;;2.07;1.83;;;5.80;99.90;;;;;;5034542;28;20690;-93
2023/11/13 05:53:47;;;;;;;1.77;1.47;;;5.70;99.90;;;;;;5035761;28;20228;-92
2023/11/13 05:56:13;;;;;;;1.80;1.70;;;5.70;99.90;;;;;;5000802;28;20210;-93
2023/11/13 05:58:39;;;;;;;2.43;2.33;;;5.80;99.90;;;;;;5017325;28;20222;-93
2023/11/13 06:01:04;;;;;;;3.03;2.77;;;5.80;99.90;;;;;;5035617;28;20206;-93
2023/11/13 06:03:31;;;;;;;4.33;2.03;;;5.80;99.90;;;;;;5003071;28;20575;-93
2023/11/13 06:05:57;;;;;;;2.43;2.23;;;5.80;99.90;;;;;;5001871;28;20225;-93
2023/11/13 06:08:22;;;;;;;3.13;2.73;;;5.80;99.90;;;;;;5018962;28;20951;-93
2023/11/13 06:10:48;;;;;;;3.20;2.90;;;5.80;99.90;;;;;;5034515;28;20301;-93
2023/11/13 06:13:14;;;;;;;2.40;2.20;;;5.90;99.90;;;;;;5033541;28;20194;-93
2023/11/13 06:15:40;;;;;;;1.23;1.07;;;5.80;99.90;;;;;;5018267;28;20198;-93
2023/11/13 06:18:07;;;;;;;0.60;0.60;;;5.90;99.90;;;;;;5035208;28;20222;-91
2023/11/13 06:20:36;;;;;;;4.20;3.63;;;5.80;99.90;;;;;;5032378;28;20244;-92
2023/11/13 06:23:02;;;;;;;2.73;2.57;;;5.90;99.90;;;;;;5033986;28;20210;-94
2023/11/13 06:25:28;;;;;;;2.53;2.33;;;5.90;99.90;;;;;;5016115;28;20199;-94
2023/11/13 06:27:56;;;;;;;4.20;3.87;;;5.80;99.90;;;;;;5017853;28;20442;-94
2023/11/13 06:30:23;;;;;;;1.93;1.83;;;5.90;99.90;;;;;;5032822;28;20333;-93
2023/11/13 06:32:50;;;;;;;4.90;2.73;;;5.90;99.90;;;;;;5033400;28;20265;-93
2023/11/13 06:35:16;;;;;;;2.87;2.77;;;5.80;99.90;;;;;;5035981;28;20221;-93
2023/11/13 06:37:42;;;;;;;2.57;2.37;;;5.70;99.90;;;;;;5034850;28;20436;-93
2023/11/13 06:40:09;;;;;;;3.10;2.53;;;5.80;99.90;;;;;;5017617;28;20208;-93
2023/11/13 06:42:35;;;;;;;1.17;1.17;;;5.80;99.90;;;;;;5033830;28;20322;-93
2023/11/13 06:45:02;;;;;;;3.17;2.97;;;5.80;99.90;;;;;;5017579;28;20291;-93
2023/11/13 06:47:27;;;;;;;1.73;1.63;;;5.80;99.90;;;;;;5017983;28;20226;-94
2023/11/13 06:49:54;;;;;;;2.00;1.90;;;5.80;99.90;;;;;;5035956;28;20686;-94
2023/11/13 06:52:21;;;;;;;3.33;3.13;;;5.80;99.90;;;;;;4998827;28;20283;-94
2023/11/13 06:54:47;;;;;;;2.53;2.37;;;5.90;99.90;;;;;;5017235;28;20223;-94
2023/11/13 06:57:13;;;;;;;1.77;1.30;;;5.90;99.90;;;;;;5017526;28;20222;-93
2023/11/13 06:59:42;;;;;;;1.00;1.00;;;5.90;99.90;;;;;;5018784;28;20224;-93
2023/11/13 07:02:07;;;;;;;2.47;2.33;;;5.90;99.90;;;;;;5031351;28;20588;-93
2023/11/13 07:04:33;;;;;;;2.90;2.70;;;5.90;99.90;;;;;;5017397;28;20663;-92
2023/11/13 07:07:01;;;;;;;1.87;1.77;;;5.90;99.90;;;;;;5032747;28;20190;-93
2023/11/13 07:09:27;;;;;;;3.83;3.27;;;5.90;99.90;;;;;;5016467;28;20595;-92
2023/11/13 07:11:53;;;;;;;2.03;1.87;;;5.90;99.90;;;;;;5017844;28;20217;-91
2023/11/13 07:14:19;;;;;;;1.33;1.23;;;6.00;99.90;;;;;;5033002;28;20230;-92
2023/11/13 07:16:45;;;;;;;1.90;1.60;;;5.90;99.90;;;;;;5016944;28;21089;-93
2023/11/13 07:19:14;;;;;;;2.57;2.47;;;6.00;99.90;;;;;;5015973;28;20196;-92
2023/11/13 07:21:43;;;;;;;2.97;2.10;;;6.00;99.90;;;;;;5034184;28;20731;-94
2023/11/13 07:24:10;;;;;;;1.93;1.83;;;6.00;99.90;;;;;;5032166;28;20713;-93
2023/11/13 07:26:36;;;;;;;3.57;1.83;;;6.00;99.90;;;;;;5017284;28;20242;-94
2023/11/13 07:29:03;;;;;;;4.27;2.80;;;6.00;99.90;;;;;;5032057;28;20237;-94
2023/11/13 07:31:29;;;;;;;2.93;2.80;;;6.00;99.90;;;;;;5032451;28;20251;-93
2023/11/13 07:33:55;;;;;;;4.67;3.17;;;6.00;99.90;;;;;;5032945;28;20196;-93
2023/11/13 07:36:22;;;;;;;4.20;2.40;;;6.00;99.90;;;;;;5000306;28;20222;-93
2023/11/13 07:38:48;;;;;;;2.53;2.33;;;6.00;99.90;;;;;;5033106;28;20276;-92
2023/11/13 07:41:16;;;;;;;2.17;2.07;;;6.10;99.90;;;;;;5040270;28;20592;-92
2023/11/13 07:43:43;;;;;;;2.63;2.53;;;6.10;99.90;;;;;;5031688;28;20246;-92
2023/11/13 07:46:11;;;;;;;2.63;2.53;;;6.10;99.90;;;;;;5032422;28;20221;-93
2023/11/13 07:48:40;;;;;;;1.67;1.57;;;6.10;99.90;;;;;;5030649;28;20376;-93
2023/11/13 07:51:07;;;;;;;1.60;1.53;;;6.20;99.90;;;;;;5017592;28;20226;-93
2023/11/13 07:53:35;;;;;;;1.70;1.60;;;6.20;99.90;;;;;;5032438;28;20317;-93
2023/11/13 07:56:02;;;;;;;5.03;3.60;;;6.20;99.90;;;;;;5039833;28;20217;-93
2023/11/13 07:58:28;;;;;;;4.63;2.43;;;6.30;99.90;;;;;;5017145;28;20598;-94
2023/11/13 08:00:55;;;;;;;5.10;3.23;;;6.30;99.90;;;;;;5017758;28;20304;-93
2023/11/13 08:03:22;;;;;;;2.67;2.47;;;6.40;99.90;;;;;;5041344;28;20284;-94
2023/11/13 08:05:48;;;;;;;1.37;1.33;;;6.40;99.90;;;;;;5017197;28;20222;-92
2023/11/13 08:08:14;;;;;;;2.00;1.90;;;6.40;99.90;;;;;;5032666;28;20261;-92
2023/11/13 08:10:41;;;;;;;3.80;2.87;;;6.50;99.90;;;;;;5021825;28;20237;-93
2023/11/13 08:13:07;;;;;;;2.30;2.20;;;6.60;99.90;;;;;;5005413;28;20281;-93
2023/11/13 08:15:34;;;;;;;3.67;3.13;;;6.60;99.90;;;;;;5019308;28;20224;-94
2023/11/13 08:18:00;;;;;;;1.47;1.37;;;6.70;99.90;;;;;;5018502;28;20221;-93
2023/11/13 08:20:26;;;;;;;0.80;0.80;;;6.70;99.90;;;;;;5035609;28;20269;-93
2023/11/13 08:22:59;;;;;;;0.87;0.87;;;6.80;99.90;;;;;;5002519;28;20246;-95
2023/11/13 08:25:26;;;;;;;2.77;2.57;;;6.90;99.90;;;;;;5019882;28;20217;-94
2023/11/13 08:27:52;;;;;;;4.03;2.83;;;6.80;99.90;;;;;;5019475;28;21111;-92
2023/11/13 08:30:22;;;;;;;1.70;1.60;;;6.80;99.90;;;;;;5036405;28;20234;-94
2023/11/13 08:32:51;;;;;;;1.57;1.57;;;6.90;99.90;;;;;;5033820;28;20225;-94
2023/11/13 08:35:18;;;;;;;1.97;1.77;;;6.90;99.90;;;;;;5018808;28;20218;-93
2023/11/13 08:37:45;;;;;;;1.47;1.43;;;7.00;99.90;;;;;;5015089;28;20356;-93
2023/11/13 08:40:14;;;;;;;1.17;1.17;;;7.00;99.90;;;;;;5034984;28;20208;-95
2023/11/13 08:42:41;;;;;;;1.20;1.20;;;7.00;99.90;;;;;;5035070;28;20276;-93
2023/11/13 08:45:12;;;;;;;1.10;1.07;;;7.10;99.90;;;;;;5019442;28;20549;-94
2023/11/13 08:47:42;;;;;;;1.57;1.00;;;7.00;99.90;;;;;;5021034;28;20214;-94
2023/11/13 08:50:11;;;;;;;2.53;1.50;;;7.10;99.90;;;;;;5017643;28;20227;-94
2023/11/13 08:52:40;;;;;;;3.73;3.27;;;7.10;99.90;;;;;;5034758;28;20252;-93
2023/11/13 08:55:10;;;;;;;3.10;2.80;;;7.10;99.90;;;;;;5019741;28;20198;-92
2023/11/13 08:57:38;;;;;;;2.00;1.53;;;7.10;99.90;;;;;;5018666;28;20210;-91
2023/11/13 09:00:05;;;;;;;3.30;2.60;;;7.10;99.90;;;;;;5018334;28;20244;-94
2023/11/13 09:02:31;;;;;;;3.60;2.40;;;7.10;99.90;;;;;;5033272;28;20215;-93
2023/11/13 09:04:56;;;;;;;3.77;3.47;;;7.10;99.90;;;;;;5002287;28;20560;-94
2023/11/13 09:07:23;;;;;;;2.07;1.97;;;7.10;99.90;;;;;;5017204;28;20602;-92
2023/11/13 09:09:54;;;;;;;3.50;3.30;;;7.10;99.90;;;;;;5032598;28;20268;-93
2023/11/13 09:12:20;;;;;;;1.27;1.17;;;7.10;99.90;;;;;;5001417;28;20226;-94
2023/11/13 09:14:47;;;;;;;1.83;1.63;;;7.20;99.90;;;;;;5017868;28;20288;-93
2023/11/13 09:17:13;;;;;;;2.93;2.73;;;7.10;99.90;;;;;;5018787;28;20214;-91
2023/11/13 09:19:42;;;;;;;3.40;2.70;;;7.10;99.90;;;;;;5033940;28;20276;-91
2023/11/13 09:22:09;;;;;;;2.90;2.37;;;7.10;99.90;;;;;;5033701;28;20268;-90
2023/11/13 09:24:41;;;;;;;2.00;1.90;;;7.10;99.90;;;;;;5018193;28;20432;-91
2023/11/13 09:27:11;;;;;;;3.50;1.97;;;7.10;99.90;;;;;;5018233;28;20213;-92
2023/11/13 09:29:40;;;;;;;2.40;2.20;;;7.10;99.90;;;;;;5032720;28;20226;-93
2023/11/13 09:32:07;;;;;;;1.70;1.70;;;7.10;99.90;;;;;;5048332;28;20222;-93
2023/11/13 09:34:33;;;;;;;5.33;3.47;;;7.20;99.90;;;;;;5031441;28;20223;-93
2023/11/13 09:36:59;;;;;;;3.90;3.70;;;7.20;99.90;;;;;;5029332;28;20205;-92
2023/11/13 09:39:32;;;;;;;3.40;3.20;;;7.30;99.90;;;;;;5016095;28;20225;-93
2023/11/13 09:42:03;;;;;;;3.07;2.87;;;7.30;99.90;;;;;;5018421;28;20226;-93
2023/11/13 09:44:31;;;;;;;2.10;2.00;;;7.30;99.90;;;;;;5035879;28;20225;-93
2023/11/13 09:47:04;;;;;;;16.73;2.60;;;7.30;99.90;;;;;;5016040;28;20777;-92
2023/11/13 09:49:32;;;;;;;6.80;3.10;;;7.40;99.90;;;;;;5033796;28;20179;-92
2023/11/13 09:52:02;;;;;;;14.80;3.30;;;7.40;99.90;;;;;;5032954;28;20225;-92
2023/11/13 09:54:30;;;;;;;3.70;1.90;;;7.40;99.90;;;;;;5032313;28;20225;-92
2023/11/13 09:57:00;;;;;;;2.23;2.07;;;7.50;99.90;;;;;;5034065;28;20280;-93
2023/11/13 09:59:33;;;;;;;2.57;2.33;;;7.50;99.90;;;;;;5034270;28;20219;-93
2023/11/13 10:01:59;;;;;;;3.43;3.17;;;7.50;99.90;;;;;;5018221;28;20236;-93
2023/11/13 10:04:26;;;;;;;4.37;3.93;;;7.60;99.90;;;;;;5018925;28;20877;-92
2023/11/13 10:06:53;;;;;;;4.00;2.40;;;7.60;99.90;;;;;;5032985;28;20189;-95
2023/11/13 10:09:26;;;;;;;2.10;2.00;;;7.70;99.90;;;;;;5032324;28;20231;-95
2023/11/13 10:11:53;;;;;;;4.13;3.83;;;7.80;99.90;;;;;;5016932;28;20269;-94
2023/11/13 10:14:19;;;;;;;1.53;1.47;;;7.80;99.90;;;;;;5034390;28;20222;-95
2023/11/13 10:16:56;;;;;;;2.57;1.80;;;7.90;99.90;;;;;;5034201;28;20241;-94
2023/11/13 10:19:23;;;;;;;3.83;3.53;;;7.90;99.90;;;;;;5035599;28;20186;-93
2023/11/13 10:21:49;;;;;;;16.83;3.33;;;7.90;99.90;;;;;;5030124;28;20238;-95
2023/11/13 10:24:19;;;;;;;3.63;3.37;;;8.00;99.90;;;;;;5033555;28;20226;-94
2023/11/13 10:26:55;;;;;;;2.43;2.23;;;8.00;99.90;;;;;;5017773;28;20249;-93
2023/11/13 10:29:32;;;;;;;2.00;1.90;;;8.10;99.90;;;;;;5025564;28;20257;-93
2023/11/13 10:32:01;;;;;;;2.23;2.13;;;8.10;99.90;;;;;;5033269;28;20941;-93
2023/11/13 10:34:43;;;;;;;3.37;3.07;;;8.20;99.90;;;;;;5017999;28;20186;-95
2023/11/13 10:37:13;;;;;;;5.10;2.13;;;8.20;99.90;;;;;;5033073;28;20175;-93
2023/11/13 10:39:42;;;;;;;2.83;2.63;;;8.20;99.90;;;;;;5049751;28;20326;-93
2023/11/13 10:42:22;;;;;;;1.77;1.67;;;8.30;99.90;;;;;;5017575;28;20315;-93
2023/11/13 10:44:55;;;;;;;3.10;2.80;;;8.30;99.90;;;;;;5034354;28;20226;-93
2023/11/13 10:47:26;;;;;;;1.03;1.03;;;8.30;99.90;;;;;;5036209;28;20217;-93
2023/11/13 10:49:54;;;;;;;3.30;1.30;;;8.30;99.90;;;;;;5033714;28;20223;-92
2023/11/13 10:52:23;;;;;;;1.17;1.07;;;8.40;99.90;;;;;;4998619;28;20187;-93
2023/11/13 10:54:53;;;;;;;1.37;1.37;;;8.50;99.90;;;;;;5034501;28;20186;-93
2023/11/13 10:57:20;;;;;;;2.73;2.07;;;8.50;99.90;;;;;;5031978;28;20232;-94
2023/11/13 10:59:47;;;;;;;3.30;1.93;;;8.50;99.90;;;;;;5034359;28;20219;-92
2023/11/13 11:02:26;;;;;;;2.33;1.37;;;8.70;99.90;;;;;;5031799;28;20268;-92
2023/11/13 11:04:58;;;;;;;4.80;3.50;;;8.60;99.90;;;;;;5036053;28;20221;-93
2023/11/13 11:07:26;;;;;;;4.63;2.97;;;8.60;99.90;;;;;;5032081;28;20178;-94
2023/11/13 11:09:57;;;;;;;1.70;1.17;;;8.70;99.90;;;;;;5033835;28;20198;-96
2023/11/13 11:12:34;;;;;;;1.53;1.43;;;8.70;99.90;;;;;;5033192;28;20259;-92
2023/11/13 11:15:15;;;;;;;1.53;1.43;;;8.70;99.90;;;;;;5034114;28;20297;-94
2023/11/13 11:17:53;;;;;;;2.67;1.70;;;8.80;99.90;;;;;;5030109;28;20214;-95
2023/11/13 11:20:43;;;;;;;1.00;1.00;;;8.80;99.90;;;;;;5031090;28;20249;-93
2023/11/13 11:23:11;;;;;;;3.23;1.50;;;8.80;99.90;;;;;;5016079;28;20226;-95
2023/11/13 11:25:46;;;;;;;2.10;0.80;;;8.90;99.90;;;;;;5035414;28;20305;-93
2023/11/13 11:28:37;;;;;;;1.33;1.27;;;9.00;99.90;;;;;;5034872;28;20177;-94
2023/11/13 11:31:39;;;;;;;1.97;1.87;;;9.00;99.90;;;;;;5030549;28;20261;-95
2023/11/13 11:34:06;;;;;;;4.33;1.57;;;9.20;99.90;;;;;;5031885;28;20264;-93
2023/11/13 11:36:37;;;;;;;2.20;2.03;;;9.20;99.90;;;;;;5035113;28;20206;-93
2023/11/13 11:39:25;;;;;;;1.33;1.20;;;9.20;99.90;;;;;;5032235;28;20796;-94
2023/11/13 11:41:55;;;;;;;1.33;1.27;;;9.20;99.90;;;;;;5033655;28;20233;-92
2023/11/13 11:44:29;;;;;;;1.30;1.20;;;9.20;99.90;;;;;;5036992;28;20573;-93
2023/11/13 11:46:56;;;;;;;1.10;1.10;;;9.30;99.90;;;;;;5036411;28;20581;-92
2023/11/13 11:49:26;;;;;;;2.20;1.90;;;9.30;99.90;;;;;;5036778;28;20179;-93
2023/11/13 11:52:09;;;;;;;2.37;1.57;;;9.30;99.90;;;;;;5035717;28;20576;-95
2023/11/13 11:54:35;;;;;;;1.03;1.03;;;9.40;99.90;;;;;;5011557;28;20221;-94
2023/11/13 11:57:03;;;;;;;1.50;1.40;;;9.40;99.90;;;;;;5021492;28;20218;-95
2023/11/13 11:59:30;;;;;;;0.70;0.63;;;9.50;99.90;;;;;;5036879;28;21080;-91
2023/11/13 12:02:07;;;;;;;2.43;1.23;;;9.60;99.90;;;;;;5036239;28;20313;-95
2023/11/13 12:04:33;;;;;;;1.03;0.77;;;9.60;99.90;;;;;;5037853;28;20225;-93
2023/11/13 12:07:01;;;;;;;0.70;0.70;;;9.60;99.90;;;;;;5036128;28;20512;-93
2023/11/13 12:09:28;;;;;;;0.67;0.60;;;9.70;99.90;;;;;;5036911;28;20222;-93
2023/11/13 12:11:54;;;;;;;0.87;0.87;;;9.70;99.90;;;;;;5037616;28;20280;-92
2023/11/13 12:14:20;;;;;;;1.37;1.17;;;9.80;99.90;;;;;;5035901;28;20305;-95
2023/11/13 12:16:50;;;;;;;0.40;0.40;;;9.80;99.90;;;;;;5033924;28;20291;-93
2023/11/13 12:19:16;;;;;;;0.93;0.93;;;9.80;99.90;;;;;;5034571;28;20202;-93
2023/11/13 12:21:43;;;;;;;0.73;0.73;;;9.80;99.90;;;;;;5034536;28;20456;-94
2023/11/13 12:24:13;;;;;;;0.60;0.60;;;9.90;99.90;;;;;;5036489;28;20238;-94
2023/11/13 12:26:44;;;;;;;0.77;0.77;;;9.80;99.90;;;;;;5034756;28;21197;-94
2023/11/13 12:29:14;;;;;;;0.30;0.30;;;9.90;99.90;;;;;;5034017;28;20697;-92
2023/11/13 12:31:44;;;;;;;0.53;0.53;;;9.90;99.90;;;;;;5018163;28;20296;-92
2023/11/13 12:34:14;;;;;;;0.63;0.63;;;10.00;99.90;;;;;;5018972;28;20186;-92
2023/11/13 12:36:42;;;;;;;1.23;1.17;;;10.00;99.90;;;;;;5034227;28;20210;-96
2023/11/13 12:39:17;;;;;;;1.40;0.67;;;10.00;99.90;;;;;;5037149;28;20218;-93
2023/11/13 12:41:53;;;;;;;0.40;0.40;;;10.00;99.90;;;;;;5034493;28;20233;-94
2023/11/13 12:44:20;;;;;;;0.60;0.60;;;10.10;99.90;;;;;;5037494;28;21089;-95
2023/11/13 12:46:50;;;;;;;0.87;0.80;;;10.20;99.90;;;;;;5019050;28;20225;-95
2023/11/13 12:49:17;;;;;;;0.20;0.20;;;10.20;99.90;;;;;;5033389;28;20735;-94
2023/11/13 12:51:47;;;;;;;0.30;0.30;;;10.30;99.90;;;;;;5037436;28;20231;-95
2023/11/13 12:54:14;;;;;;;0.33;0.33;;;10.40;99.90;;;;;;5035517;28;20777;-93
2023/11/13 12:56:46;;;;;;;0.40;0.40;;;10.40;99.90;;;;;;5042438;28;20218;-95